Rolf Williams — WDC7079 — position and weather

sailwx.info

Track history (hours):
 
Tides and Currents Weather Stations Pressure Air Temp Water Temp Dewpoint Dewpoint Depression Visibility Wind Speed Wind Dir Waves Ship Positions

Rolf Williams

Owner: Marine Oil Service of New York, Elizabeth, NJ. More information available from US FCC via Universal Licensing System and Coast Guard Vessel Documentation Center.

Last reported at 2018-Jun-24 21:01 UTC. Time now 2018-Jun-25 05:42 UTC.
Position N 36°50' W 076°18'.

; draft 4 m.

Type: Tanker. MMSI: 367065790.

Date/timePositionNaut miles runAvg speedWind from/ knotsBaromVisibWave heightAir tempDewpointWater temp
2018-Jun-24 21:01N 36°50' W 076°18'0 6.5
2018-Jun-24 21:00N 36°50' W 076°18'3 0.4
2018-Jun-24 13:43N 36°52' W 076°20'2 5.9
2018-Jun-24 13:21N 36°51' W 076°18'2 6.0
2018-Jun-24 13:00N 36°49' W 076°17'1 0.5
2018-Jun-24 10:59N 36°48' W 076°18'2 0.1
2018-Jun-23 21:43N 36°49' W 076°17'1 5.3
2018-Jun-23 21:30N 36°51' W 076°18'1 0.1
2018-Jun-23 16:35N 36°51' W 076°18'1 5.0
2018-Jun-23 16:27N 36°51' W 076°18'1 0.1
2018-Jun-22 20:15N 36°49' W 076°17'1 5.6
2018-Jun-22 20:00N 36°51' W 076°18'2 0.4
2018-Jun-22 14:55N 36°52' W 076°20'3 7.6
2018-Jun-22 14:30N 36°50' W 076°18'0 0.0
2018-Jun-21 18:39N 36°49' W 076°17'1 4.8
2018-Jun-21 18:30N 36°50' W 076°18'3 0.7
2018-Jun-21 14:25N 36°52' W 076°20'3 6.3
2018-Jun-21 14:00N 36°50' W 076°18'1 0.0
2018-Jun-20 21:45N 36°50' W 076°18'2 7.3
2018-Jun-20 21:28N 36°51' W 076°19'1 0.4
2018-Jun-20 19:13N 36°51' W 076°18'1 7.2
2018-Jun-20 19:00N 36°49' W 076°17'3 5.6
2018-Jun-20 18:29N 36°47' W 076°18'0 0.0
2018-Jun-20 17:59N 36°47' W 076°18'0 0.0
2018-Jun-20 17:29N 36°47' W 076°18'0 0.0
2018-Jun-20 16:59N 36°47' W 076°18'0 0.5
2018-Jun-20 16:31N 36°47' W 076°19'1 0.5
2018-Jun-20 13:52N 36°48' W 076°18'0 0.0
2018-Jun-20 11:34N 36°48' W 076°18'0 0.1
2018-Jun-20 11:28N 36°48' W 076°18'0 0.1
2018-Jun-20 11:00N 36°48' W 076°18'1 0.0
2018-Jun-18 21:52N 36°49' W 076°17'3 1.0
2018-Jun-18 18:30N 36°52' W 076°20'3 6.4
2018-Jun-18 18:00N 36°49' W 076°17'  
2018-Jun-15 23:59N 36°51' W 076°18'1 0.1
2018-Jun-15 14:29N 36°52' W 076°19'3 6.6
2018-Jun-15 14:01N 36°49' W 076°17'3 5.4
2018-Jun-15 13:30N 36°47' W 076°18'0 0.0
2018-Jun-15 13:00N 36°47' W 076°18'0 0.0
2018-Jun-15 12:30N 36°47' W 076°18'0 0.0
2018-Jun-15 12:00N 36°47' W 076°18'0 0.0
2018-Jun-15 11:30N 36°47' W 076°18'0 0.0
2018-Jun-15 11:00N 36°47' W 076°18'0 0.0
2018-Jun-15 10:30N 36°47' W 076°18'0 0.0
2018-Jun-15 10:00N 36°47' W 076°18'3 5.5
2018-Jun-15 09:30N 36°49' W 076°17'0 0.0
2018-Jun-14 22:26N 36°49' W 076°17'  
Track history (hours):
 
Tides and Currents Weather Stations Pressure Air Temp Water Temp Dewpoint Dewpoint Depression Visibility Wind Speed Wind Dir Waves Ship Positions

Rolf Williams

Owner: Marine Oil Service of New York, Elizabeth, NJ. More information available from US FCC via Universal Licensing System and Coast Guard Vessel Documentation Center.

Last reported at 2018-Jun-24 21:01 UTC. Time now 2018-Jun-25 05:42 UTC.
Position N 36°50' W 076°18'.

; draft 4 m.

Type: Tanker. MMSI: 367065790.

Date/timePositionNaut miles runAvg speedWind from/ knotsBaromVisibWave heightAir tempDewpointWater temp
2018-Jun-24 21:01N 36°50' W 076°18'0 6.5
2018-Jun-24 21:00N 36°50' W 076°18'3 0.4
2018-Jun-24 13:43N 36°52' W 076°20'2 5.9
2018-Jun-24 13:21N 36°51' W 076°18'2 6.0
2018-Jun-24 13:00N 36°49' W 076°17'1 0.5
2018-Jun-24 10:59N 36°48' W 076°18'2 0.1
2018-Jun-23 21:43N 36°49' W 076°17'1 5.3
2018-Jun-23 21:30N 36°51' W 076°18'1 0.1
2018-Jun-23 16:35N 36°51' W 076°18'1 5.0
2018-Jun-23 16:27N 36°51' W 076°18'1 0.1
2018-Jun-22 20:15N 36°49' W 076°17'1 5.6
2018-Jun-22 20:00N 36°51' W 076°18'2 0.4
2018-Jun-22 14:55N 36°52' W 076°20'3 7.6
2018-Jun-22 14:30N 36°50' W 076°18'0 0.0
2018-Jun-21 18:39N 36°49' W 076°17'1 4.8
2018-Jun-21 18:30N 36°50' W 076°18'3 0.7
2018-Jun-21 14:25N 36°52' W 076°20'3 6.3
2018-Jun-21 14:00N 36°50' W 076°18'1 0.0
2018-Jun-20 21:45N 36°50' W 076°18'2 7.3
2018-Jun-20 21:28N 36°51' W 076°19'1 0.4
2018-Jun-20 19:13N 36°51' W 076°18'1 7.2
2018-Jun-20 19:00N 36°49' W 076°17'3 5.6
2018-Jun-20 18:29N 36°47' W 076°18'0 0.0
2018-Jun-20 17:59N 36°47' W 076°18'0 0.0
2018-Jun-20 17:29N 36°47' W 076°18'0 0.0
2018-Jun-20 16:59N 36°47' W 076°18'0 0.5
2018-Jun-20 16:31N 36°47' W 076°19'1 0.5
2018-Jun-20 13:52N 36°48' W 076°18'0 0.0
2018-Jun-20 11:34N 36°48' W 076°18'0 0.1
2018-Jun-20 11:28N 36°48' W 076°18'0 0.1
2018-Jun-20 11:00N 36°48' W 076°18'1 0.0
2018-Jun-18 21:52N 36°49' W 076°17'3 1.0
2018-Jun-18 18:30N 36°52' W 076°20'3 6.4
2018-Jun-18 18:00N 36°49' W 076°17'  
2018-Jun-15 23:59N 36°51' W 076°18'1 0.1
2018-Jun-15 14:29N 36°52' W 076°19'3 6.6
2018-Jun-15 14:01N 36°49' W 076°17'3 5.4
2018-Jun-15 13:30N 36°47' W 076°18'0 0.0
2018-Jun-15 13:00N 36°47' W 076°18'0 0.0
2018-Jun-15 12:30N 36°47' W 076°18'0 0.0
2018-Jun-15 12:00N 36°47' W 076°18'0 0.0
2018-Jun-15 11:30N 36°47' W 076°18'0 0.0
2018-Jun-15 11:00N 36°47' W 076°18'0 0.0
2018-Jun-15 10:30N 36°47' W 076°18'0 0.0
2018-Jun-15 10:00N 36°47' W 076°18'3 5.5
2018-Jun-15 09:30N 36°49' W 076°17'0 0.0
2018-Jun-14 22:26N 36°49' W 076°17'  

Dump ship's entire track history